Time;durP1;ratioP1;P1;durP2;ratioP2;P2;SDS_P1;SDS_P2;PMS_P1;PMS_P2;Temp;Humidity;BMP_temperature;BMP_pressure;BME280_temperature;BME280_humidity;BME280_pressure;Samples;Min_cycle;Max_cycle;Signal;HPM_P1;HPM_P2
2021/07/30 00:00:04;;;;;;;;;7.00;6.67;;;;;18.28;56.58;100792.00;5035546;28;47555;-67
2021/07/30 00:02:30;;;;;;;;;5.00;5.00;;;;;18.26;56.61;100788.72;5037295;28;45590;-69
2021/07/30 00:04:55;;;;;;;;;5.33;5.00;;;;;18.25;56.81;100789.69;5043926;28;47191;-66
2021/07/30 00:07:20;;;;;;;;;7.67;6.33;;;;;18.24;56.91;100785.38;5035232;28;45717;-66
2021/07/30 00:09:46;;;;;;;;;7.67;6.67;;;;;18.23;56.96;100786.38;5035292;28;45601;-64
2021/07/30 00:12:11;;;;;;;;;6.00;5.33;;;;;18.22;57.13;100779.41;5036817;28;45443;-68
2021/07/30 00:14:36;;;;;;;;;6.00;6.00;;;;;18.17;57.31;100777.22;5037360;28;46940;-65
2021/07/30 00:17:02;;;;;;;;;11.00;4.67;;;;;18.15;57.50;100781.88;5035792;28;50054;-67
2021/07/30 00:19:27;;;;;;;;;7.67;6.00;;;;;18.12;57.45;100785.69;5036966;28;45888;-66
2021/07/30 00:21:52;;;;;;;;;6.67;5.00;;;;;18.08;57.51;100787.00;5036214;28;45368;-66
2021/07/30 00:24:18;;;;;;;;;9.67;6.33;;;;;18.07;57.38;100789.81;5035666;28;46150;-70
2021/07/30 00:26:44;;;;;;;;;6.33;6.00;;;;;18.07;57.49;100771.19;5029259;28;45456;-67
2021/07/30 00:29:09;;;;;;;;;8.67;7.33;;;;;18.07;57.67;100771.19;5030214;28;45587;-65
2021/07/30 00:31:34;;;;;;;;;5.00;5.00;;;;;18.06;57.66;100778.34;5031164;28;45332;-68
2021/07/30 00:33:59;;;;;;;;;8.00;5.00;;;;;18.05;57.69;100763.41;5035422;28;47180;-67
2021/07/30 00:36:25;;;;;;;;;8.00;6.33;;;;;18.06;57.54;100769.53;5035644;28;49206;-67
2021/07/30 00:38:50;;;;;;;;;7.33;6.67;;;;;18.06;57.44;100761.56;5036209;28;45360;-65
2021/07/30 00:41:16;;;;;;;;;6.33;5.67;;;;;18.10;57.54;100768.25;5036291;28;45498;-66
2021/07/30 00:43:41;;;;;;;;;7.00;7.00;;;;;18.12;57.37;100758.25;5035490;28;45454;-66
2021/07/30 00:46:07;;;;;;;;;7.00;3.67;;;;;18.14;57.56;100765.09;5036183;28;45179;-66
2021/07/30 00:48:33;;;;;;;;;8.00;6.00;;;;;18.14;57.52;100746.47;5035071;28;45412;-66
2021/07/30 00:50:58;;;;;;;;;8.33;6.00;;;;;18.15;57.56;100755.28;5024458;28;45467;-66
2021/07/30 00:53:25;;;;;;;;;7.67;7.67;;;;;18.14;57.46;100756.28;5036283;28;47174;-65
2021/07/30 00:55:50;;;;;;;;;7.67;7.00;;;;;18.13;57.74;100751.97;5034907;28;45462;-67
2021/07/30 00:58:16;;;;;;;;;7.33;6.67;;;;;18.13;57.84;100757.28;5028873;28;47549;-65
2021/07/30 01:00:41;;;;;;;;;5.00;5.00;;;;;18.12;57.84;100755.59;5036215;28;45449;-67
2021/07/30 01:03:08;;;;;;;;;6.33;5.67;;;;;18.11;58.04;100749.47;5035025;28;47094;-66
2021/07/30 01:05:34;;;;;;;;;10.00;8.67;;;;;18.08;58.12;100744.47;5035274;28;45481;-66
2021/07/30 01:08:02;;;;;;;;;8.00;7.00;;;;;18.07;58.23;100747.28;5034719;28;45429;-67
2021/07/30 01:10:27;;;;;;;;;9.00;7.33;;;;;18.04;58.15;100742.31;5035363;28;45555;-66
2021/07/30 01:12:54;;;;;;;;;10.00;8.33;;;;;18.03;58.12;100740.63;5035661;28;45233;-66
2021/07/30 01:15:20;;;;;;;;;7.33;7.33;;;;;18.01;58.17;100742.59;5036324;28;45602;-66
2021/07/30 01:17:45;;;;;;;;;8.33;7.00;;;;;18.00;58.14;100733.00;5030779;28;45484;-68
2021/07/30 01:20:12;;;;;;;;;22.00;16.33;;;;;18.01;58.41;100737.28;5034918;28;45590;-66
2021/07/30 01:22:55;;;;;;;;;10.67;9.00;;;;;18.01;58.67;100737.28;5028934;28;46266;-71
2021/07/30 01:25:21;;;;;;;;;9.67;7.67;;;;;18.00;58.56;100740.97;5029445;28;45328;-69
2021/07/30 01:27:48;;;;;;;;;12.00;10.67;;;;;17.98;58.97;100733.97;5034387;28;45610;-67
2021/07/30 01:30:14;;;;;;;;;10.00;9.00;;;;;17.97;58.81;100736.81;5027145;28;45598;-67
2021/07/30 01:32:40;;;;;;;;;11.67;10.00;;;;;17.95;58.86;100734.28;5035178;28;47175;-63
2021/07/30 01:35:06;;;;;;;;;16.00;12.00;;;;;17.94;58.78;100724.69;5034369;28;45395;-65
2021/07/30 01:37:32;;;;;;;;;15.00;12.00;;;;;17.92;58.97;100729.28;5034274;28;45375;-65
2021/07/30 01:39:57;;;;;;;;;12.33;11.00;;;;;17.89;58.80;100734.94;5033235;28;45413;-65
2021/07/30 01:42:23;;;;;;;;;14.67;13.67;;;;;17.88;58.76;100725.28;5033403;28;46963;-65
2021/07/30 01:44:50;;;;;;;;;9.67;8.67;;;;;17.87;58.96;100720.16;5035171;28;45407;-64
2021/07/30 01:47:16;;;;;;;;;12.00;8.50;;;;;17.89;58.87;100719.00;5033290;28;45549;-64
2021/07/30 01:49:41;;;;;;;;;9.00;9.00;;;;;17.93;58.86;100719.50;5033622;28;45715;-64
2021/07/30 01:52:06;;;;;;;;;8.67;7.67;;;;;17.91;58.96;100716.97;5033860;28;47305;-64
2021/07/30 01:54:31;;;;;;;;;11.67;8.00;;;;;17.95;58.72;100710.38;5024374;28;45451;-64
2021/07/30 01:56:57;;;;;;;;;7.67;7.67;;;;;17.93;59.12;100712.38;5032804;28;45429;-63
2021/07/30 01:59:22;;;;;;;;;11.33;7.00;;;;;17.96;58.87;100717.34;5029839;28;48106;-63
2021/07/30 02:01:47;;;;;;;;;9.33;7.67;;;;;17.95;58.87;100710.38;5034142;28;45432;-65
2021/07/30 02:04:13;;;;;;;;;8.00;7.67;;;;;17.95;58.89;100715.69;5046788;28;48344;-66
2021/07/30 02:06:38;;;;;;;;;7.00;6.67;;;;;17.95;58.91;100718.34;5037828;28;45584;-65
2021/07/30 02:09:03;;;;;;;;;8.33;8.33;;;;;17.93;59.13;100709.72;5035872;28;45472;-64
2021/07/30 02:11:29;;;;;;;;;7.67;7.33;;;;;17.95;59.20;100714.88;5033677;28;46289;-64
2021/07/30 02:16:39;;;;;;;;;7.67;7.00;;;;;17.93;59.11;100712.38;5034035;28;45384;-66
2021/07/30 02:19:04;;;;;;;;;11.33;9.33;;;;;17.92;59.13;100701.88;5034245;28;45614;-63
2021/07/30 02:21:29;;;;;;;;;9.33;6.67;;;;;17.90;59.14;100709.19;5034445;28;45745;-64
2021/07/30 02:23:55;;;;;;;;;6.33;6.33;;;;;17.87;59.03;100702.38;5034284;28;45340;-65
2021/07/30 02:26:20;;;;;;;;;5.00;5.00;;;;;17.83;59.14;100703.69;5034984;28;45419;-66
2021/07/30 02:28:45;;;;;;;;;10.33;7.67;;;;;17.81;59.23;100695.03;5035481;28;45443;-64
2021/07/30 02:31:11;;;;;;;;;7.00;6.00;;;;;17.79;59.32;100703.16;5037145;28;45558;-63
2021/07/30 02:33:36;;;;;;;;;7.33;6.67;;;;;17.77;59.38;100704.31;5036136;28;45333;-65
2021/07/30 02:36:02;;;;;;;;;10.67;6.33;;;;;17.75;59.55;100698.38;5034542;28;46323;-64
2021/07/30 02:38:27;;;;;;;;;9.67;7.67;;;;;17.74;59.56;100709.97;5034797;28;45809;-65
2021/07/30 02:40:52;;;;;;;;;9.67;7.33;;;;;17.74;59.78;100699.34;5034314;28;45431;-65
2021/07/30 02:43:18;;;;;;;;;9.00;7.67;;;;;17.74;59.71;100692.19;5035050;28;45351;-66
2021/07/30 02:45:43;;;;;;;;;5.33;5.33;;;;;17.74;60.01;100691.38;5034586;28;45359;-66
2021/07/30 02:48:08;;;;;;;;;6.33;6.00;;;;;17.70;59.63;100695.34;5033971;28;46038;-66
2021/07/30 02:50:34;;;;;;;;;7.00;6.33;;;;;17.69;59.99;100688.38;5032103;28;62172;-65
2021/07/30 02:52:59;;;;;;;;;8.00;7.67;;;;;17.65;59.95;100693.16;5034893;28;50148;-66
2021/07/30 02:55:24;;;;;;;;;6.33;6.33;;;;;17.65;59.91;100686.03;5036048;28;45313;-66
2021/07/30 02:57:49;;;;;;;;;8.33;7.67;;;;;17.63;60.16;100688.03;5032534;28;45523;-65
2021/07/30 03:00:15;;;;;;;;;10.00;7.00;;;;;17.63;60.16;100682.72;5033141;28;45966;-66
2021/07/30 03:02:40;;;;;;;;;7.00;7.00;;;;;17.61;59.95;100683.88;5034159;28;45692;-67
2021/07/30 03:05:06;;;;;;;;;8.00;7.00;;;;;17.59;60.05;100677.88;5033013;28;45362;-65
2021/07/30 03:07:32;;;;;;;;;7.67;6.33;;;;;17.51;60.14;100670.72;5032614;28;45569;-66
2021/07/30 03:09:57;;;;;;;;;9.00;7.00;;;;;17.49;59.99;100668.22;5037765;28;49168;-66
2021/07/30 03:12:23;;;;;;;;;7.67;7.00;;;;;17.45;60.25;100669.53;5036808;28;45479;-66
2021/07/30 03:14:48;;;;;;;;;7.33;6.33;;;;;17.40;60.42;100660.41;5039125;28;45390;-65
2021/07/30 03:17:13;;;;;;;;;6.33;6.33;;;;;17.39;60.31;100674.66;5036903;28;45494;-66
2021/07/30 03:19:39;;;;;;;;;7.00;7.00;;;;;17.35;60.51;100665.34;5032027;28;46259;-66
2021/07/30 03:22:04;;;;;;;;;8.00;7.00;;;;;17.36;60.61;100661.69;5031981;28;55299;-66
2021/07/30 03:24:30;;;;;;;;;9.33;8.00;;;;;17.37;60.60;100663.34;5033746;28;45424;-66
2021/07/30 03:26:55;;;;;;;;;5.67;5.67;;;;;17.38;60.47;100651.75;5030324;28;45528;-65
2021/07/30 03:29:21;;;;;;;;;8.33;6.67;;;;;17.38;60.62;100651.75;5033637;28;45305;-64
2021/07/30 03:31:47;;;;;;;;;11.33;7.67;;;;;17.36;60.70;100653.72;5032932;28;45352;-65
2021/07/30 03:34:16;;;;;;;;;5.67;5.67;;;;;17.37;60.71;100658.91;5034670;28;45320;-64
2021/07/30 03:36:42;;;;;;;;;9.00;8.33;;;;;17.37;60.67;100663.34;5029025;28;45464;-65
2021/07/30 03:39:08;;;;;;;;;10.33;7.67;;;;;17.38;60.68;100668.50;5037601;28;46080;-65
2021/07/30 03:41:34;;;;;;;;;9.00;7.33;;;;;17.39;61.07;100666.69;5034179;28;45523;-65
2021/07/30 03:43:59;;;;;;;;;6.67;6.67;;;;;17.41;61.07;100662.88;5036747;28;45345;-65
2021/07/30 03:46:24;;;;;;;;;8.67;6.33;;;;;17.44;60.90;100659.09;5036651;28;45447;-64
2021/07/30 03:48:50;;;;;;;;;7.67;6.67;;;;;17.48;60.78;100653.28;5028979;28;47147;-66
2021/07/30 03:51:15;;;;;;;;;16.67;12.33;;;;;17.51;60.84;100651.31;5020656;28;45376;-65
2021/07/30 03:53:40;;;;;;;;;9.33;6.67;;;;;17.53;60.88;100660.78;5036743;28;45510;-65
2021/07/30 03:56:16;;;;;;;;;8.33;7.00;;;;;17.61;60.76;100652.81;5036564;28;45411;-65
2021/07/30 03:58:45;;;;;;;;;9.00;9.00;;;;;17.62;60.73;100654.47;5036398;28;47189;-66
2021/07/30 04:01:11;;;;;;;;;12.00;7.33;;;;;17.60;60.91;100650.31;5036425;28;45483;-66
2021/07/30 04:03:37;;;;;;;;;7.67;7.00;;;;;17.67;60.88;100656.66;5034806;28;45401;-65
2021/07/30 04:06:04;;;;;;;;;8.00;8.00;;;;;17.69;60.71;100648.53;5036475;28;45379;-65
2021/07/30 04:08:29;;;;;;;;;7.67;6.00;;;;;17.68;60.60;100650.34;5037126;28;46214;-63
2021/07/30 04:10:55;;;;;;;;;11.33;8.33;;;;;17.72;60.69;100654.34;5035760;28;45428;-64
2021/07/30 04:13:20;;;;;;;;;8.00;7.33;;;;;17.72;60.36;100648.19;5036553;28;45403;-66
2021/07/30 04:15:45;;;;;;;;;10.33;8.00;;;;;17.70;60.50;100647.53;5036258;28;45332;-65
2021/07/30 04:18:11;;;;;;;;;8.00;6.67;;;;;17.66;60.57;100652.34;5036342;28;46022;-66
2021/07/30 04:20:39;;;;;;;;;9.00;6.67;;;;;17.64;60.57;100652.50;5039821;28;45425;-65
2021/07/30 04:23:05;;;;;;;;;10.00;7.00;;;;;17.65;60.59;100648.84;5038936;28;45321;-66
2021/07/30 04:25:30;;;;;;;;;8.33;6.67;;;;;17.67;60.61;100656.66;5036853;28;47900;-65
2021/07/30 04:27:55;;;;;;;;;7.00;6.33;;;;;17.69;60.58;100657.31;5036876;28;46110;-65
2021/07/30 04:30:21;;;;;;;;;12.00;7.67;;;;;17.72;60.87;100653.50;5036145;28;45252;-66
2021/07/30 04:32:46;;;;;;;;;9.00;7.00;;;;;17.73;60.67;100649.88;5036460;28;45509;-66
2021/07/30 04:35:12;;;;;;;;;10.33;7.67;;;;;17.74;60.65;100656.84;5035156;28;45538;-65
2021/07/30 04:37:37;;;;;;;;;8.33;6.67;;;;;17.73;60.76;100658.66;5035677;28;45379;-66
2021/07/30 04:40:03;;;;;;;;;11.00;7.33;;;;;17.76;60.86;100654.84;5035329;28;45488;-65
2021/07/30 04:42:29;;;;;;;;;7.33;5.67;;;;;17.75;60.68;100650.53;5049932;28;45348;-64
2021/07/30 04:44:54;;;;;;;;;7.33;7.33;;;;;17.82;60.57;100656.84;5036041;28;45583;-64
2021/07/30 04:47:19;;;;;;;;;7.00;7.00;;;;;17.85;60.49;100659.19;5035239;28;46157;-65
2021/07/30 04:49:44;;;;;;;;;10.33;8.33;;;;;17.83;60.78;100650.56;5035344;28;45404;-65
2021/07/30 04:52:10;;;;;;;;;8.33;6.00;;;;;17.80;60.59;100658.84;5034908;28;48497;-65
2021/07/30 04:54:35;;;;;;;;;8.00;6.33;;;;;17.84;60.53;100659.34;5035314;28;45485;-64
2021/07/30 04:57:00;;;;;;;;;9.67;8.00;;;;;17.84;60.54;100662.84;5035079;28;57300;-64
2021/07/30 04:59:26;;;;;;;;;9.67;7.00;;;;;17.85;60.55;100666.31;5036168;28;45390;-65
2021/07/30 05:01:51;;;;;;;;;12.67;8.67;;;;;17.81;60.70;100665.81;5036067;28;45373;-65
2021/07/30 05:04:18;;;;;;;;;5.33;5.33;;;;;17.76;60.53;100665.47;5035278;28;45419;-65
2021/07/30 05:06:43;;;;;;;;;16.00;8.00;;;;;17.71;60.74;100659.81;5035297;28;47203;-65
2021/07/30 05:09:08;;;;;;;;;9.67;7.33;;;;;17.68;61.01;100665.47;5034754;28;53740;-66
2021/07/30 05:11:34;;;;;;;;;8.67;8.67;;;;;17.65;61.00;100664.78;5035834;28;45312;-67
2021/07/30 05:13:59;;;;;;;;;9.33;9.00;;;;;17.63;61.25;100660.63;5035009;28;45454;-65
2021/07/30 05:16:24;;;;;;;;;10.67;8.00;;;;;17.62;61.25;100659.78;5035142;28;45948;-64
2021/07/30 05:18:50;;;;;;;;;12.33;8.67;;;;;17.59;61.29;100660.13;5035411;28;45357;-66
2021/07/30 05:21:15;;;;;;;;;10.00;7.00;;;;;17.59;61.45;100665.44;5037610;28;45661;-66
2021/07/30 05:23:41;;;;;;;;;10.00;7.33;;;;;17.59;61.21;100652.16;5039820;28;45316;-65
2021/07/30 05:26:06;;;;;;;;;9.67;8.33;;;;;17.61;61.47;100650.16;5040858;28;46907;-65
2021/07/30 05:28:32;;;;;;;;;10.00;6.67;;;;;17.67;61.39;100661.13;5035695;28;45403;-66
2021/07/30 05:30:58;;;;;;;;;9.00;9.00;;;;;17.72;61.07;100662.31;5035040;28;45703;-64
2021/07/30 05:33:25;;;;;;;;;9.67;7.67;;;;;17.79;61.12;100670.47;5035361;28;45403;-65
2021/07/30 05:35:50;;;;;;;;;5.67;5.67;;;;;17.88;60.83;100664.19;5035087;28;45464;-65
2021/07/30 05:38:15;;;;;;;;;10.00;8.67;;;;;17.94;60.96;100663.56;5034412;28;45459;-65
2021/07/30 05:40:44;;;;;;;;;8.67;7.33;;;;;18.13;60.62;100656.25;5032156;28;45490;-64
2021/07/30 05:43:10;;;;;;;;;9.00;8.00;;;;;18.54;59.69;100652.75;5028610;28;45617;-64
2021/07/30 05:45:36;;;;;;;;;8.00;7.00;;;;;19.00;59.46;100653.03;5021148;28;46403;-64
2021/07/30 05:48:01;;;;;;;;;8.33;7.67;;;;;19.76;58.02;100649.88;5035079;28;46128;-65
2021/07/30 05:50:26;;;;;;;;;8.67;6.33;;;;;20.61;56.10;100650.69;5035202;28;45547;-63
2021/07/30 05:52:52;;;;;;;;;8.00;8.00;;;;;21.45;54.98;100646.94;5034337;28;45668;-64
2021/07/30 05:55:18;;;;;;;;;6.67;6.33;;;;;22.25;54.09;100642.41;5034586;28;46313;-63
2021/07/30 05:57:43;;;;;;;;;6.33;5.33;;;;;22.98;52.40;100645.84;5034483;28;45474;-63
2021/07/30 06:00:09;;;;;;;;;12.67;9.33;;;;;23.71;51.41;100640.75;5034995;28;45361;-64
2021/07/30 06:02:35;;;;;;;;;6.00;6.00;;;;;24.42;49.16;100643.09;5035033;28;45383;-62
2021/07/30 06:05:00;;;;;;;;;4.00;1.33;;;;;24.64;50.20;100633.03;5033236;28;45551;-64
2021/07/30 06:07:25;;;;;;;;;7.00;5.33;;;;;24.45;47.58;100640.84;5033469;28;51685;-64
2021/07/30 06:09:50;;;;;;;;;8.33;6.67;;;;;24.06;47.93;100637.94;5030401;28;51252;-64
2021/07/30 06:12:16;;;;;;;;;8.67;5.67;;;;;23.69;47.83;100653.56;5018568;28;51965;-64
2021/07/30 06:14:41;;;;;;;;;4.67;3.00;;;;;23.19;48.73;100648.44;5035540;28;45985;-64
2021/07/30 06:17:06;;;;;;;;;5.00;5.00;;;;;22.78;48.75;100643.84;5023176;28;45485;-65
2021/07/30 06:19:32;;;;;;;;;6.00;4.33;;;;;22.38;48.75;100641.72;5029297;28;45463;-65
2021/07/30 06:21:58;;;;;;;;;6.00;5.00;;;;;22.04;49.14;100642.44;5035172;28;45517;-67
2021/07/30 06:24:26;;;;;;;;;5.00;4.00;;;;;21.70;50.41;100643.94;5034966;28;46065;-65
2021/07/30 06:26:52;;;;;;;;;5.33;4.00;;;;;21.40;50.46;100646.66;5034805;28;45309;-69
2021/07/30 06:29:17;;;;;;;;;6.33;6.33;;;;;21.09;50.89;100642.38;5033879;28;45513;-65
2021/07/30 06:31:42;;;;;;;;;4.00;3.00;;;;;20.85;51.87;100640.81;5029970;28;47334;-65
2021/07/30 06:34:09;;;;;;;;;5.00;5.00;;;;;20.69;52.16;100636.44;5025198;28;45466;-64
2021/07/30 06:36:34;;;;;;;;;5.00;5.00;;;;;20.49;52.66;100628.97;5034023;28;45471;-65
2021/07/30 06:38:59;;;;;;;;;10.33;9.33;;;;;20.37;52.86;100633.06;5033137;28;45489;-64
2021/07/30 06:41:24;;;;;;;;;8.33;7.00;;;;;20.21;53.24;100618.06;5034254;28;46436;-64
2021/07/30 06:43:50;;;;;;;;;6.00;4.00;;;;;20.21;53.67;100629.56;5033525;28;46131;-65
2021/07/30 06:46:15;;;;;;;;;5.33;5.00;;;;;20.26;53.78;100632.53;5033434;28;45488;-64
2021/07/30 06:48:41;;;;;;;;;4.67;4.67;;;;;20.38;53.93;100630.25;5034713;28;45498;-63
2021/07/30 06:51:10;;;;;;;;;6.00;5.33;;;;;20.40;54.04;100627.41;5033178;28;45439;-65
2021/07/30 06:53:35;;;;;;;;;6.00;5.00;;;;;20.46;53.98;100626.69;5034240;28;46228;-64
2021/07/30 06:56:13;;;;;;;;;8.00;7.00;;;;;20.52;53.81;100631.25;5033027;28;46918;-65
2021/07/30 06:58:40;;;;;;;;;6.00;6.00;;;;;20.58;53.61;100630.56;5034013;28;45448;-64
2021/07/30 07:01:06;;;;;;;;;6.67;5.00;;;;;20.71;53.61;100623.78;5033408;28;45483;-64
2021/07/30 07:03:31;;;;;;;;;4.33;3.67;;;;;20.90;53.51;100623.25;5034248;28;45333;-63
2021/07/30 07:05:57;;;;;;;;;7.00;4.33;;;;;21.04;52.96;100628.75;5019504;28;45411;-64
2021/07/30 07:08:23;;;;;;;;;6.00;5.00;;;;;21.08;52.38;100630.03;5036478;28;45534;-63
2021/07/30 07:10:48;;;;;;;;;8.00;7.00;;;;;21.17;52.75;100634.25;5036494;28;45495;-65
2021/07/30 07:13:15;;;;;;;;;5.00;5.00;;;;;21.29;52.04;100636.47;5033056;28;45280;-64
2021/07/30 07:15:45;;;;;;;;;6.00;5.33;;;;;21.39;52.60;100631.66;5033656;28;45626;-64
2021/07/30 07:18:11;;;;;;;;;2.00;2.00;;;;;21.47;52.38;100631.56;5034949;28;45458;-64
2021/07/30 07:20:36;;;;;;;;;5.00;5.00;;;;;21.46;52.17;100629.91;5037727;28;45400;-65
2021/07/30 07:23:02;;;;;;;;;4.33;4.33;;;;;21.46;52.22;100629.91;5036716;28;45657;-64
2021/07/30 07:25:28;;;;;;;;;4.33;4.00;;;;;21.47;52.24;100622.69;5036346;28;46065;-65
2021/07/30 07:27:53;;;;;;;;;6.00;4.33;;;;;21.46;51.83;100626.38;5037979;28;45466;-64
2021/07/30 07:30:19;;;;;;;;;5.00;5.00;;;;;21.48;52.40;100625.19;5036319;28;45441;-65
2021/07/30 07:32:45;;;;;;;;;6.33;5.33;;;;;21.52;52.65;100626.47;5032347;28;46251;-64
2021/07/30 07:35:10;;;;;;;;;2.00;2.00;;;;;21.55;51.90;100625.28;5036359;28;45482;-64
2021/07/30 07:37:36;;;;;;;;;7.00;6.00;;;;;21.56;52.20;100617.09;5037219;28;45253;-64
2021/07/30 07:40:01;;;;;;;;;4.67;4.33;;;;;21.55;52.41;100623.44;5037209;28;45581;-64
2021/07/30 07:42:26;;;;;;;;;5.33;4.33;;;;;21.53;51.90;100617.41;5037687;28;45399;-65
2021/07/30 07:44:52;;;;;;;;;6.33;6.33;;;;;21.53;52.76;100617.41;5033479;28;45361;-65
2021/07/30 07:47:18;;;;;;;;;4.67;4.00;;;;;21.53;53.07;100611.25;5038160;28;45449;-65
2021/07/30 07:49:43;;;;;;;;;3.00;3.00;;;;;21.52;52.28;100615.78;5035772;28;45422;-63
2021/07/30 07:52:08;;;;;;;;;7.00;5.00;;;;;21.57;52.28;100616.06;5036598;28;45937;-64
2021/07/30 07:54:33;;;;;;;;;7.67;5.33;;;;;21.65;52.10;100603.59;5036155;28;45523;-64
2021/07/30 07:57:02;;;;;;;;;5.00;5.00;;;;;21.69;52.50;100611.06;5020509;28;45377;-64
2021/07/30 07:59:28;;;;;;;;;5.67;5.00;;;;;21.72;52.61;100609.84;5037793;28;45376;-65
2021/07/30 08:01:53;;;;;;;;;7.33;4.33;;;;;21.74;52.34;100611.31;5024037;28;46306;-62
2021/07/30 08:04:18;;;;;;;;;4.33;3.00;;;;;21.78;52.42;100606.41;5029214;28;45458;-64
2021/07/30 08:06:44;;;;;;;;;7.67;4.00;;;;;21.82;51.99;100598.81;5037142;28;45824;-65
2021/07/30 08:09:09;;;;;;;;;5.00;5.00;;;;;21.88;51.80;100603.41;5036854;28;45274;-64
2021/07/30 08:11:35;;;;;;;;;4.33;4.00;;;;;21.91;51.71;100592.31;5037456;28;45408;-63
2021/07/30 08:14:00;;;;;;;;;5.00;4.33;;;;;21.93;51.99;100596.47;5036406;28;45272;-64
2021/07/30 08:16:26;;;;;;;;;5.00;3.33;;;;;21.96;51.66;100595.25;5047879;28;47193;-64
2021/07/30 08:18:52;;;;;;;;;5.67;4.00;;;;;22.05;51.71;100588.75;5040404;28;45506;-64
2021/07/30 08:21:17;;;;;;;;;3.33;3.33;;;;;22.14;51.75;100586.75;5039373;28;47085;-65
2021/07/30 08:23:42;;;;;;;;;2.33;2.33;;;;;22.22;51.55;100589.31;5036476;28;45510;-64
2021/07/30 08:26:08;;;;;;;;;5.67;5.00;;;;;22.24;51.14;100587.25;5036265;28;45341;-63
2021/07/30 08:28:33;;;;;;;;;3.33;2.33;;;;;22.28;51.29;100581.53;5047515;28;51134;-65
2021/07/30 08:30:58;;;;;;;;;4.00;4.00;;;;;22.29;51.21;100594.72;5031755;28;47390;-65
2021/07/30 08:33:24;;;;;;;;;3.67;3.67;;;;;22.28;51.34;100592.22;5035362;28;45490;-63
2021/07/30 08:35:49;;;;;;;;;6.00;4.67;;;;;22.22;51.66;100589.31;5036489;28;45459;-64
2021/07/30 08:38:15;;;;;;;;;4.00;4.00;;;;;22.22;51.56;100591.16;5036200;28;45332;-65
2021/07/30 08:40:40;;;;;;;;;5.00;4.00;;;;;22.20;51.56;100587.84;5035797;28;46114;-66
2021/07/30 08:43:06;;;;;;;;;4.67;3.67;;;;;22.19;50.97;100578.16;5035986;28;45471;-65
2021/07/30 08:45:31;;;;;;;;;5.00;4.00;;;;;22.17;51.46;100589.06;5036147;28;45470;-65
2021/07/30 08:48:00;;;;;;;;;4.67;3.00;;;;;22.14;51.63;100586.75;5036437;28;45345;-65
2021/07/30 08:50:27;;;;;;;;;3.00;3.00;;;;;22.02;52.28;100588.31;5037441;28;46125;-65
2021/07/30 08:52:56;;;;;;;;;3.67;3.00;;;;;21.88;52.47;100588.19;5037149;28;45321;-64
2021/07/30 08:55:31;;;;;;;;;8.67;5.00;;;;;21.80;52.92;100580.31;5030795;28;45485;-64
2021/07/30 08:57:56;;;;;;;;;4.00;3.67;;;;;21.82;52.80;100588.13;5037308;28;45333;-64
2021/07/30 09:00:23;;;;;;;;;4.33;4.00;;;;;21.85;52.69;100591.25;5035862;28;48123;-64
2021/07/30 09:02:48;;;;;;;;;5.33;4.00;;;;;21.84;52.57;100584.25;5037887;28;45397;-64
2021/07/30 09:05:33;;;;;;;;;5.00;2.33;;;;;21.85;52.82;100590.44;5037067;28;45359;-64
2021/07/30 09:08:01;;;;;;;;;7.33;4.67;;;;;21.74;53.00;100589.94;5035398;28;45220;-64
2021/07/30 09:10:27;;;;;;;;;2.33;2.33;;;;;21.70;53.10;100582.47;5036091;28;47017;-65
2021/07/30 09:13:28;;;;;;;;;3.33;3.33;;;;;21.71;52.97;100576.94;5035257;28;45618;-64
2021/07/30 09:16:20;;;;;;;;;5.00;4.00;;;;;21.67;53.50;100582.88;5035352;28;45498;-66
2021/07/30 09:18:46;;;;;;;;;5.33;3.00;;;;;21.65;53.62;100583.03;5036075;28;45367;-64
2021/07/30 09:21:30;;;;;;;;;3.33;3.33;;;;;21.67;53.59;100583.69;5034236;28;46061;-65
2021/07/30 09:24:07;;;;;;;;;3.00;3.00;;;;;21.76;53.46;100573.69;5034849;28;45460;-64
2021/07/30 09:26:44;;;;;;;;;5.00;4.00;;;;;21.81;54.22;100565.94;5033617;28;45250;-66
2021/07/30 09:29:15;;;;;;;;;5.33;5.00;;;;;21.87;54.12;100573.19;5032798;28;45724;-64
2021/07/30 09:31:44;;;;;;;;;5.00;4.00;;;;;21.97;54.12;100580.06;5035135;28;45506;-62
2021/07/30 09:34:13;;;;;;;;;4.67;4.00;;;;;21.99;54.21;100586.88;5035434;28;46219;-64
2021/07/30 09:37:09;;;;;;;;;3.33;3.33;;;;;21.97;53.66;100572.03;5034865;28;45420;-64
2021/07/30 09:39:36;;;;;;;;;4.00;3.67;;;;;22.01;53.38;100584.81;5029785;28;45754;-65
2021/07/30 09:42:08;;;;;;;;;5.00;5.00;;;;;22.07;53.35;100585.91;5037144;28;45465;-64
2021/07/30 09:45:00;;;;;;;;;5.67;4.33;;;;;22.10;54.02;100577.47;5034546;28;45336;-64
2021/07/30 09:47:31;;;;;;;;;6.00;6.00;;;;;22.11;53.25;100586.31;5036258;28;45272;-65
2021/07/30 09:50:04;;;;;;;;;3.00;3.00;;;;;22.13;53.45;100574.41;5036308;28;45571;-65
2021/07/30 09:52:33;;;;;;;;;5.33;5.33;;;;;22.13;53.89;100563.69;5035245;28;45654;-64
2021/07/30 09:55:00;;;;;;;;;3.33;3.33;;;;;22.24;53.31;100565.84;5035271;28;45571;-64
2021/07/30 09:57:30;;;;;;;;;3.00;1.00;;;;;22.35;53.22;100567.16;5035491;28;45408;-65
2021/07/30 10:00:01;;;;;;;;;5.00;3.00;;;;;22.47;52.95;100575.53;5034947;28;45481;-65
2021/07/30 10:02:30;;;;;;;;;4.00;4.00;;;;;22.54;53.03;100559.50;5035240;28;45554;-65
2021/07/30 10:04:56;;;;;;;;;8.00;5.00;;;;;22.59;53.37;100573.13;5034581;28;45414;-65
2021/07/30 10:07:24;;;;;;;;;7.67;5.33;;;;;22.63;52.92;100578.91;5034652;28;45391;-63
2021/07/30 10:09:55;;;;;;;;;4.00;3.00;;;;;22.63;52.51;100557.50;5035235;28;45246;-63
2021/07/30 10:12:21;;;;;;;;;5.00;3.33;;;;;22.63;52.56;100573.56;5019405;28;46922;-64
2021/07/30 10:14:48;;;;;;;;;6.67;4.00;;;;;22.65;53.10;100576.84;5034940;28;45550;-65
2021/07/30 10:17:15;;;;;;;;;4.00;3.00;;;;;22.66;52.57;100563.25;5035003;28;45510;-63
2021/07/30 10:19:42;;;;;;;;;3.00;3.00;;;;;22.66;52.62;100563.25;5033909;28;45482;-64
2021/07/30 10:22:10;;;;;;;;;7.67;6.00;;;;;22.65;52.50;100566.13;5034447;28;46509;-65
2021/07/30 10:24:42;;;;;;;;;7.00;7.00;;;;;22.60;52.09;100564.06;5035004;28;45459;-65
2021/07/30 10:27:10;;;;;;;;;6.00;3.67;;;;;22.54;53.13;100567.53;5034860;28;45546;-64
2021/07/30 10:30:03;;;;;;;;;4.00;4.00;;;;;22.47;52.39;100562.13;5035304;28;45411;-64
2021/07/30 10:32:52;;;;;;;;;4.67;3.00;;;;;22.50;52.55;100551.03;5032563;28;45522;-64
2021/07/30 10:35:26;;;;;;;;;2.33;2.00;;;;;22.53;52.40;100544.47;5034984;28;45352;-64
2021/07/30 10:38:28;;;;;;;;;3.33;3.33;;;;;22.54;52.98;100560.31;5035262;28;45576;-64
2021/07/30 10:41:14;;;;;;;;;4.33;4.00;;;;;22.52;52.64;100550.81;5034731;28;45654;-65
2021/07/30 10:43:49;;;;;;;;;7.33;6.33;;;;;22.54;52.71;100544.25;5035091;28;46105;-64
2021/07/30 10:46:15;;;;;;;;;12.00;11.67;;;;;22.63;52.33;100544.91;5046007;28;45487;-64
2021/07/30 10:48:41;;;;;;;;;10.33;8.67;;;;;22.71;52.22;100534.03;5034778;28;45400;-64
2021/07/30 10:51:19;;;;;;;;;6.00;5.00;;;;;22.76;51.96;100536.13;5036957;28;45343;-64
2021/07/30 10:53:49;;;;;;;;;6.33;5.67;;;;;22.84;52.19;100538.63;5037344;28;46246;-64
2021/07/30 10:56:14;;;;;;;;;7.33;5.00;;;;;22.93;51.56;100530.44;5040171;28;45521;-64
2021/07/30 10:58:40;;;;;;;;;3.67;3.00;;;;;23.00;51.12;100536.63;5040990;28;45454;-65
2021/07/30 11:01:09;;;;;;;;;2.00;0.33;;;;;23.04;50.72;100535.19;5040979;28;45455;-64
2021/07/30 11:06:26;;;;;;;;;5.33;4.00;;;;;23.13;50.73;100534.00;5041071;28;45396;-64
2021/07/30 11:09:14;;;;;;;;;4.33;3.33;;;;;23.19;50.36;100543.13;5041114;28;45472;-64
2021/07/30 11:11:47;;;;;;;;;3.33;3.33;;;;;23.21;50.25;100535.69;5044709;28;45354;-64
2021/07/30 11:14:12;;;;;;;;;4.00;4.00;;;;;23.25;50.50;100528.91;5041294;28;46475;-64
2021/07/30 11:16:41;;;;;;;;;2.00;2.00;;;;;23.31;50.58;100535.31;5041045;28;45425;-64
2021/07/30 11:19:07;;;;;;;;;2.33;2.33;;;;;23.33;49.73;100528.72;5040911;28;45605;-65
2021/07/30 11:21:32;;;;;;;;;4.00;4.00;;;;;23.33;50.01;100536.75;5040712;28;45385;-63
2021/07/30 11:23:59;;;;;;;;;4.33;2.00;;;;;23.30;49.36;100537.19;5040957;28;46243;-64
2021/07/30 11:26:24;;;;;;;;;3.00;1.00;;;;;23.36;48.57;100551.59;5042291;28;45576;-63
2021/07/30 11:28:56;;;;;;;;;2.33;2.00;;;;;23.42;46.86;100536.56;5041146;28;45449;-64